Racecast

Tyler Dahl

Laramie (WY) · 12 · WY D4AClass 4AEAST · Compare head to head

Athlete ratingi 123.3 2015 TF season
Best race 125.8 TF
Races 92
Seasons 5 2014 — 2018

RankedNation #5900·WY #28·WY D4A #24·EAST #11·Team #13 (3+ races) ?

Rating scale ?
Speed rating — all races

Track & Field

TF speed rating

2018 TF

Laramie (WY) · Grade 12

Date Meet Event Result Place Ratingi Difficultyi PR/SR Flags
2018-05-18 WHSAAA State Championship 200m 23.45 14th · 1st on team -0.3%
2018-05-11 WHSAA 4A East Regional 200m 23.45 8th · 1st on team +1.7%
2018-05-11 WHSAA 4A East Regional 400m 49.64 1st · 1st on team +1.7%
2018-05-11 WHSAA 4A East Regional 400m 49.78 2nd · 2nd on team +1.7%
2018-05-11 WHSAA 4A East Regional 200m 23.88 11th · 2nd on team +1.7%
2018-05-04 2018 Wiseman Invitational 200m 23.11 5th · 2nd on team -0.5% SR
2018-05-04 2018 Wiseman Invitational 400m 49.44 1st · 1st on team -0.5% ★PR SR
2018-04-28 Casper Invite 100m 11.97 27th · 1st on team -2.0%
2018-04-28 Kelly Walsh Invitational 100m 11.97 27th · 1st on team -0.3%
2018-04-28 Kelly Walsh Invitational 200m 23.78 15th · 3rd on team -0.3%
2018-04-28 Casper Invite 200m 23.78 15th · 3rd on team -2.0%
2018-04-27 Wyoming Track Classic 400m 50.23 4th · 1st on team -0.3%
2018-04-21 Cheyenne Central Invitational 400m 50.46 1st · 1st on team +1.7%
2018-04-12 Okie Blanchard Invitational 400m 50.13 1st · 1st on team +1.4% SR
2018-04-12 Okie Blanchard Invitational 100m 12.2 13th · 2nd on team +1.4%
2018-03-23 Runners Roost of Fort Collins Invitational 200m 23.31 5th · 1st on team -0.6% SR
2018-03-23 Runners Roost of Fort Collins Invitational 400m 51.24 1st · 1st on team -0.6%
2018-03-23 Runners Roost of Fort Collins Invitational 100m 11.76 19th · 2nd on team -0.6% ★PR SR
2018-02-23 Laramie HS Meet 200m 23.88 4th · 1st on team +0.4%
2018-02-23 Laramie HS Meet 400m 51.8 1st · 1st on team +0.4%
2018-02-17 Simplot Games 400m 51.1 18th · 1st on team -1.5% SR
2018-02-17 Simplot Games 400m 51.7 28th · 2nd on team -1.5%
2018-02-03 Air Force HS Indoor Open 200m 23.66 42nd · 5th on team +0.3% SR
2018-02-03 Air Force HS Indoor Open 400m 51.72 9th · 2nd on team +0.3% SR
2018-01-27 Wyoming Open 400m 52.87 1st · 1st on team +0.4%
2018-01-27 Wyoming Open 200m 24.19 2nd · 1st on team +0.4%
2018-01-20 Gillette Invitational 400m 52.58 1st · 1st on team -1.5% SR
2018-01-20 Gillette Invitational 55m 7.07 25th · 4th on team -1.5% SR
2018-01-20 Gillette Invitational 200m 24.01 2nd · 2nd on team -1.5% SR
2018-01-13 Stadium Sports Grill HS Open 400m 52.73 1st · 1st on team -1.7% SR
2018-01-13 Stadium Sports Grill HS Open 60m 7.61 33rd · 6th on team -1.7% ★PR SR
2018-01-13 Stadium Sports Grill HS Open 200m 24.36 6th · 2nd on team -1.7% SR

PR personal record · SR season record · CR course record · CSR course season record · R rating record · RSR rating season record · ★ still standing

2017 TF

Laramie (WY) · Grade 11

Date Meet Event Result Place Ratingi Difficultyi PR/SR Flags
2017-05-20 WY WHSAA State 4A Meet 400m 50.52 5th · 2nd on team -0.3%
2017-05-20 WY WHSAA State 4A Meet 400m 50.31 4th · 1st on team -0.3%
2017-05-20 WY WHSAA State 4A Meet 200m 24.29 21st · 3rd on team -0.3%
2017-05-13 WHSAA 4A East Regional 200m 23.79 15th · 4th on team -0.4%
2017-05-13 WHSAA 4A East Regional 400m 49.89 3rd · 1st on team -0.4% PR SR
2017-05-13 WHSAA 4A East Regional 400m 49.98 4th · 2nd on team -0.4%
2017-05-13 WHSAA 4A East Regional 200m 23.47 11th · 2nd on team -0.4%
2017-05-13 WHSAA 4A East Regional 100m 12.44 20th · 4th on team -0.4%
2017-05-05 Wiseman Invite 100m 11.9 9th · 3rd on team -0.5%
2017-05-05 Wiseman Invite 400m 50.48 1st · 1st on team -0.5%
2017-05-05 Wiseman Invite 200m 23.71 7th · 2nd on team -0.5%
2017-04-22 Poudre Invitational 100m 11.89 5th · 1st on team -0.1% SR
2017-04-22 Poudre Invitational 200m 23.44 3rd · 2nd on team -0.1% SR
2017-04-22 Poudre Invitational 400m 50.39 2nd · 1st on team -0.1% PR SR
2017-04-13 South Twilight 200m 24.36 5th · 2nd on team +0.6%
2017-04-13 South Twilight 100m 12.86 12th · 4th on team +0.6% SR
2017-04-07 Okie Blanchard Invitational 400m 50.93 2nd · 1st on team +1.4%
2017-04-07 Okie Blanchard Invitational 200m 23.99 8th · 3rd on team +1.4%
2017-04-01 Altitude Running Invitational 200m 23.52 10th · 1st on team -0.6% SR
2017-04-01 Altitude Running Invitational 400m 50.79 2nd · 1st on team -0.6%
2017-03-25 Runners Roost of Fort Collins Invitational 400m 50.66 3rd · 1st on team -0.6% SR
2017-03-25 Runners Roost of Fort Collins Invitational 200m 23.96 13th · 2nd on team -0.6%
2017-03-03 Wyoming State Indoor Track Championships 400m 52.26 4th · 1st on team -1.5%
2017-02-18 Simplot Games 400m 53.03 44th · 1st on team -1.5%
2017-02-10 Laramie-Shine Invitational 400m 52.51 2nd · 1st on team +0.4%
2017-02-10 Laramie-Shine Invitational 200m 23.82 3rd · 3rd on team +0.4% SR
2017-02-04 Air Force HS Indoor Open 200m 24.02 41st · 2nd on team +0.3% SR
2017-02-04 Air Force HS Indoor Open 60m 7.74 116th · 7th on team +0.3% PR SR
2017-02-04 Air Force HS Indoor Open 400m 52.21 5th · 1st on team +0.3% SR
2017-01-21 Campbell County Indoor 400m 53.36 2nd · 1st on team -1.5% SR
2017-01-14 Stadium Sports Grill HS Classic 60m 7.85 49th · 6th on team -1.7% PR SR
2017-01-14 Stadium Sports Grill HS Classic 400m 53.73 3rd · 1st on team -1.7% SR

PR personal record · SR season record · CR course record · CSR course season record · R rating record · RSR rating season record · ★ still standing

2016 TF

Laramie (WY) · Grade 10

Date Meet Event Result Place Ratingi Difficultyi PR/SR Flags
2016-05-21 WY WHSAA State 4A Meet 400m 50.6 6th · 1st on team -0.3%
2016-05-21 WY WHSAA State 4A Meet 400m 51.03 10th · 3rd on team -0.3%
2016-05-21 WY WHSAA State 4A Meet 200m 23.05 12th · 1st on team -0.3%
2016-05-13 4A East Regional 200m 22.99 4th · 1st on team +1.4% ★PR SR
2016-05-13 4A East Regional 400m 50.54 2nd · 1st on team +1.4% PR SR
2016-05-06 Wiseman Invitational 100m 12.01 12th · 3rd on team -0.5%
2016-04-15 Natrona Invite 200m 23.44 5th · 2nd on team +0.6% PR SR
2016-04-15 Natrona Invite 400m 51.63 1st · 1st on team +0.6% PR SR
2016-04-08 Okie Blanch Invite 200m 23.96 5th · 2nd on team +1.4% PR SR
2016-04-08 Okie Blanch Invite 400m 51.88 2nd · 1st on team +1.4% PR SR
2016-04-08 Okie Blanch Invite 100m 11.82 13th · 5th on team +1.4% PR SR
2016-04-02 Altitude Running Invitational 400m 52.76 5th · 1st on team -0.6% PR SR
2016-01-23 Campbell County HS Indoor Invitational 55m 7.07 42nd · 5th on team -1.5% PR SR
2016-01-23 Campbell County HS Indoor Invitational 400m 54.49 5th · 2nd on team -1.5% SR

PR personal record · SR season record · CR course record · CSR course season record · R rating record · RSR rating season record · ★ still standing

2015 TF 120.9

Laramie (WY) · Grade 9

Date Meet Event Result Place Ratingi Difficultyi PR/SR Flags
2015-05-21 WHSAA State 1A 2A 3A 4A Track & Field Championship 800m 2:03.48 16th · 3rd on team 125.8 -0.3% ★PR ★R SR RSR
2015-05-08 Wiseman Invitational 400m 54.3 6th · 1st on team -0.5%
2015-05-08 Wiseman Invitational 800m 2:10.69 5th · 1st on team 119.1 -0.5%
2015-05-01 DPS Viking Invitational 400m 53.53 7th · 1st on team -0.7%
2015-05-01 DPS Viking Invitational 800m 2:14.59 14th · 3rd on team 115.2 -0.7%
2015-04-24 LoboCat Roundup 400m 53.93 13th · 2nd on team -0.4%
2015-04-10 Okie Blanchard Invite 100m 12.2 12th · 3rd on team +1.4% SR
2015-04-10 Okie Blanchard Invite 800m 2:07.6 3rd · 2nd on team 123.4 +1.4% PR R SR RSR
2015-04-10 Okie Blanchard Invite 400m 53.05 6th · 1st on team +1.4% PR SR
2015-03-28 Altitude Running Invitational 200m 24.63 18th · 1st on team -0.1% PR SR
2015-03-28 Altitude Running Invitational 400m 53.89 4th · 1st on team -0.1% PR SR

PR personal record · SR season record · CR course record · CSR course season record · R rating record · RSR rating season record · ★ still standing

2014 TF

Laramie (WY) · Grade 8

Date Meet Event Result Place Ratingi Difficultyi PR/SR Flags
2014-05-03 Wheatland Middle School Track Meet lj 16-03.00 +0.3%
2014-05-03 Wheatland Middle School Track Meet 400m 54.7 1st · 1st on team +0.3% PR SR
2014-05-03 Wheatland Middle School Track Meet 100m 11.92 1st · 1st on team +0.3% PR SR

PR personal record · SR season record · CR course record · CSR course season record · R rating record · RSR rating season record · ★ still standing